Airfield :
LOGIN :

Register | Disclaimer

   EN    FR    IT 

 










Legend :    VFR   Marginal VFR   IFR   Intensive IFR   Very Intensive IFR
Visi :
Ceiling :
>= 8 km
>= 3000ft
5 to 8 km
1000 to 3000 ft
1500m to 5 km
500 to 1000 ft
800 to 1500m
200 to 500 ft
< 800m
< 200 ft
Symbols :   Thunderstorms  Fog  Heavy snow  Heavy precipitations  Wind > 20 kt
SIGMETs :     Misc.  Thunderstorms  Icing  Turbulence  Mountain Waves  Volcanic Ashes






- Airport Elevation : 397 ft
- IATA code : IAS


LRIA - Iasi

CURRENT METAR :
  • 030300Z 10006KT 5000 BR SCT008 OVC022 M00/M00 Q1024

EXPIRED METARs :
  • 030230Z 10006KT 5000 BR BKN008 OVC025 M00/M00 Q1024
  • 030200Z 09005KT 4000 BR SCT002 BKN010 M00/M00 Q1024
  • 030130Z 10006KT 3000 -SN BR BKN002 OVC027 M00/M01 Q1024
  • 030100Z 09006KT 6000 SCT005 OVC027 00/M01 Q1024
  • 030030Z 09007KT 9999 FEW018 OVC027 00/M01 Q1024
  • 030000Z 09006KT 9999 OVC025 00/M01 Q1024

TAF TAF LRIA
Valid from the 03 at 03:00 until the 03 at 12:00 UTC


030200Z 0303/0312 10006KT 5000 BR BKN015 BKN025
TEMPO 0303/0306 3000 BR OVC010



MET'MAP, your aeronautical weather chart ! - Copyright ORBIFLY December 2007 - Disclaimer

ORBIFLY MET'MAP TEAM :

Programming & Development : Alexandra Zaïnal
Concept & original design : Baudouin d'Aumeries
Assistance for programming : Marc-Olivier Méhu
Technical & hardware support : Manuel Goepfert

Contact : metmap@orbifly.com




SOURCES & CREDITS :

   NOAA